TLSO2: Arkansas River, Tulsa, OK

                                SHEF ID:       TLSO2     Arkansas River at Tulsa, OK
STATION TYPE: Stream Gauge
Regulating: Stage = 15.00, Flow = 96489

PRECIP STAGE STAGE(2) RIV-FLOW WTR-TEMP DIS-OXY BAT-LOAD
in ft ft cfs F mg/l volt
Ccp-Rev Ccp-Rev Ccp-Rev Ccp-Rev Ccp-Rev Ccp-Rev Ccp-Rev
(America/Chicago)
03/21 00:00 0.00 4.67 ---- 5529 59.56 11.27 ----
03/21 01:00 0.00 4.68 ---- 5581 59.68 11.00 ----
03/21 02:00 0.00 4.68 ---- 5581 57.90 10.24 ----
03/21 03:00 0.00 4.68 ---- 5581 57.25 9.78 ----
03/21 04:00 0.00 4.67 ---- 5529 57.27 9.64 ----
03/21 05:00 0.00 4.64 ---- 5373 55.98 9.32 ----
03/21 06:00 0.00 4.58 ---- 5068 55.58 9.12 ----
03/21 07:00 0.00 4.58 ---- 5068 55.51 9.05 ----
03/21 08:00 0.00 4.56 ---- 4969 54.88 8.93 ----
03/21 09:00 0.00 4.51 ---- 4726 54.88 9.02 ----
03/21 10:00 0.00 4.47 ---- 4536 54.91 9.50 ----
03/21 11:00 0.00 4.52 ---- 4774 55.71 10.07 ----
03/21 12:00 0.00 4.46 ---- 4490 56.41 10.99 ----
03/21 13:00 0.00 4.52 ---- 4774 57.38 11.48 ----
03/21 14:00 0.00 4.49 ---- 4631 58.62 11.99 ----
03/21 15:00 0.00 4.47 ---- 4536 59.67 12.89 ----
03/21 16:00 0.00 4.46 ---- 4490 60.64 13.32 ----
03/21 17:00 0.00 4.47 ---- 4536 61.50 13.85 ----
03/21 18:00 0.00 4.45 ---- 4443 61.99 14.04 ----
03/21 19:00 0.00 4.41 ---- 4260 62.44 14.16 ----
03/21 20:00 0.00 4.46 ---- 4490 62.76 14.08 ----
03/21 21:00 0.00 4.55 ---- 4920 62.64 13.89 ----
03/21 22:00 0.00 4.58 ---- 5068 61.92 13.47 ----
03/21 23:00 0.00 4.68 ---- 5581 62.82 13.27 ----
Data processed at Sun 22Mar2026 04:48 GMT

NOTICE: If you are parsing this page

Please convert to using our Data API. Starting early 2026 we will be migrating to: https://water.usace.army.mil with modern pages rendered in JavaScript. When this migration completes you will no longer be able to scrape this page! CWMSDataAPI (CDA)

Timeseries IDs (TSIDs)

TSIDs used from left to right in the data table
TULA.Precip-Inc.Total.1Hour.1Hour.Ccp-Rev
TULA.Stage.Inst.1Hour.0.Ccp-Rev
TULA.Stage-Alt.Inst.1Hour.0.Ccp-Rev
TULA.Flow.Inst.1Hour.0.Ccp-Rev
TULA.Temp-Water.Inst.1Hour.0.Ccp-Rev
TULA.Conc-DO.Inst.1Hour.0.Ccp-Rev
TULA.Volt-Battery Load.Inst.1Hour.0.Ccp-Rev

                            

All information presented herein is the property of the government of the United States of America and may be revised or deleted at any time without prior notice. Dissemination of this information without the expressed written consent of the Public Affairs Office, Tulsa District U.S. Army Corps of Engineers is strictly prohibited. These data are gathered electronically and, as presented, have NOT undergone any form of quality control. These data are NOT guaranteed to be valid or correct.